Time;durP1;ratioP1;P1;durP2;ratioP2;P2;SDS_P1;SDS_P2;PMS_P1;PMS_P2;Temp;Humidity;BMP_temperature;BMP_pressure;BME280_temperature;BME280_humidity;BME280_pressure;Samples;Min_cycle;Max_cycle;Signal;HPM_P1;HPM_P2
2023/07/01 07:21:04;;;;;;;6.65;5.53;;;17.30;99.90;;;;;;5021097;23;20218;-93
2023/07/01 08:38:12;;;;;;;3.67;3.38;;;20.00;91.10;;;;;;5154560;23;20223;-92
2023/07/01 09:25:55;;;;;;;4.05;2.78;;;23.20;36.80;;;;;;4952086;29;20228;-93
2023/07/01 09:43:01;;;;;;;5.28;3.20;;;21.00;77.30;;;;;;4921389;29;20199;-93
2023/07/01 09:45:27;;;;;;;6.07;2.95;;;21.40;76.00;;;;;;4936615;29;20215;-93
2023/07/01 09:47:55;;;;;;;6.35;3.35;;;21.60;80.80;;;;;;4905485;29;20202;-93
2023/07/01 09:50:26;;;;;;;3.83;3.53;;;21.80;57.60;;;;;;4901819;29;20193;-91
2023/07/01 09:52:55;;;;;;;32.50;29.30;;;21.80;50.50;;;;;;4929795;29;20210;-92
2023/07/01 09:55:22;;;;;;;12.10;10.75;;;21.80;47.50;;;;;;4940884;29;20648;-92
2023/07/01 09:57:50;;;;;;;4.57;3.03;;;22.00;46.40;;;;;;4949039;29;20623;-93
2023/07/01 10:00:25;;;;;;;5.30;3.20;;;21.90;51.40;;;;;;4930239;29;20231;-92
2023/07/01 10:08:42;;;;;;;4.70;3.38;;;21.20;64.10;;;;;;4945868;29;20188;-91
2023/07/01 10:14:03;;;;;;;4.65;3.38;;;20.60;56.40;;;;;;4926613;29;20210;-94
2023/07/01 10:25:09;;;;;;;2.97;2.70;;;21.70;53.10;;;;;;4931410;29;20282;-90
2023/07/01 10:28:14;;;;;;;3.28;2.75;;;22.30;43.30;;;;;;4927531;29;20198;-91
2023/07/01 10:31:09;;;;;;;6.00;3.25;;;22.70;40.00;;;;;;4924247;29;20221;-89
2023/07/01 10:34:00;;;;;;;4.20;2.80;;;22.60;44.60;;;;;;4938431;29;20309;-88
2023/07/01 10:36:27;;;;;;;4.30;2.80;;;22.70;46.90;;;;;;4946045;29;20201;-92
2023/07/01 10:42:31;;;;;;;4.55;2.80;;;22.90;41.60;;;;;;4959371;29;20178;-90
2023/07/01 10:47:33;;;;;;;5.72;3.60;;;22.50;43.40;;;;;;5040596;23;20245;-92
2023/07/01 11:00:54;;;;;;;4.25;3.42;;;23.10;48.00;;;;;;5022559;23;20291;-90
2023/07/01 11:03:55;;;;;;;11.57;5.38;;;24.00;32.50;;;;;;4916457;29;20221;-90
2023/07/01 11:06:22;;;;;;;3.95;3.40;;;24.30;32.20;;;;;;4914935;29;20266;-91
2023/07/01 11:08:50;;;;;;;5.18;3.63;;;24.50;33.20;;;;;;4917099;29;20202;-91
2023/07/01 11:14:06;;;;;;;5.95;3.03;;;23.80;32.90;;;;;;4933535;29;20222;-90
2023/07/01 11:16:35;;;;;;;3.55;2.67;;;23.80;26.80;;;;;;4915020;29;20209;-87
2023/07/01 11:19:04;;;;;;;4.93;3.10;;;23.70;28.70;;;;;;4896178;29;20225;-91
2023/07/01 11:21:31;;;;;;;4.10;2.80;;;23.70;26.00;;;;;;4918877;29;20233;-87
2023/07/01 11:24:01;;;;;;;4.25;3.10;;;23.70;27.00;;;;;;4914779;29;20218;-88
2023/07/01 11:26:30;;;;;;;5.03;2.53;;;23.90;26.20;;;;;;4915558;29;20209;-91
2023/07/01 11:28:58;;;;;;;3.17;2.88;;;24.00;25.50;;;;;;4918889;29;20206;-91
2023/07/01 11:36:52;;;;;;;5.43;2.80;;;23.60;31.80;;;;;;4915213;29;20214;-91
2023/07/01 11:39:21;;;;;;;2.97;2.70;;;23.70;27.70;;;;;;4892712;29;20211;-91
2023/07/01 11:44:41;;;;;;;4.60;2.95;;;23.60;26.20;;;;;;4903191;29;20250;-91
2023/07/01 11:50:11;;;;;;;19.15;17.23;;;22.90;34.10;;;;;;4921947;29;20203;-90
2023/07/01 11:55:34;;;;;;;3.50;2.90;;;22.90;30.30;;;;;;4923843;29;20668;-90
2023/07/01 11:58:01;;;;;;;3.85;2.67;;;22.80;31.00;;;;;;4900320;29;20251;-92
2023/07/01 12:00:29;;;;;;;4.43;3.67;;;22.80;34.40;;;;;;4891495;29;20207;-92
2023/07/01 12:03:19;;;;;;;5.47;3.20;;;22.60;35.70;;;;;;4914277;29;20386;-90
2023/07/01 12:06:04;;;;;;;5.22;2.90;;;22.60;38.60;;;;;;4913593;29;20203;-91
2023/07/01 12:09:03;;;;;;;4.55;2.80;;;22.30;35.10;;;;;;4914668;29;20187;-92
2023/07/01 12:11:30;;;;;;;4.13;2.70;;;22.30;34.00;;;;;;4934744;29;20197;-92
2023/07/01 12:13:58;;;;;;;3.50;3.00;;;22.30;34.00;;;;;;4936248;29;20266;-93
2023/07/01 12:16:42;;;;;;;3.42;2.63;;;22.30;34.30;;;;;;4917421;29;20203;-93
2023/07/01 12:19:10;;;;;;;3.28;2.85;;;22.10;33.80;;;;;;4917025;29;20283;-90
2023/07/01 12:32:56;;;;;;;3.38;2.63;;;23.40;27.30;;;;;;5125185;23;20237;-92
2023/07/01 12:35:22;;;;;;;3.17;2.40;;;23.40;27.60;;;;;;4945519;29;20215;-92
2023/07/01 12:40:32;;;;;;;3.70;2.50;;;23.20;27.50;;;;;;4910022;29;20214;-92
2023/07/01 12:42:59;;;;;;;3.78;2.50;;;23.40;23.60;;;;;;4929175;29;20213;-92
2023/07/01 12:45:26;;;;;;;4.15;3.20;;;23.60;23.30;;;;;;4941460;29;20237;-93
2023/07/01 12:47:54;;;;;;;5.82;4.05;;;23.80;22.80;;;;;;4924560;29;20293;-87
2023/07/01 12:50:21;;;;;;;4.53;3.03;;;23.70;27.00;;;;;;4936748;29;20202;-91
2023/07/01 12:56:21;;;;;;;8.38;2.75;;;23.70;27.00;;;;;;4939966;29;20201;-90
2023/07/01 13:04:17;;;;;;;3.17;2.80;;;23.30;27.40;;;;;;4936943;29;20233;-92
2023/07/01 13:06:44;;;;;;;2.63;2.40;;;23.70;26.40;;;;;;4959435;28;20201;-92
2023/07/01 13:17:16;;;;;;;2.90;2.65;;;23.80;26.30;;;;;;4965099;28;20204;-92
2023/07/01 13:22:24;;;;;;;2.60;2.40;;;23.40;28.50;;;;;;4964397;29;20201;-93
2023/07/01 13:27:33;;;;;;;2.70;2.50;;;23.70;26.70;;;;;;4940797;29;20205;-93
2023/07/01 13:30:01;;;;;;;4.38;2.50;;;23.80;23.80;;;;;;4946844;29;20260;-92
2023/07/01 13:32:28;;;;;;;4.35;2.30;;;23.70;25.00;;;;;;4942089;29;20201;-92
2023/07/01 13:45:48;;;;;;;2.75;2.38;;;24.10;24.50;;;;;;4953776;28;20232;-92
2023/07/01 14:22:12;;;;;;;3.30;2.78;;;24.20;25.00;;;;;;4932677;28;20217;-89
2023/07/01 14:24:39;;;;;;;2.70;2.50;;;24.30;23.80;;;;;;4913833;29;20230;-89
2023/07/01 14:27:07;;;;;;;2.45;2.25;;;24.20;23.80;;;;;;4927238;29;20203;-90
2023/07/01 14:29:40;;;;;;;3.90;2.67;;;24.20;22.70;;;;;;4922945;29;20205;-90
2023/07/01 14:32:08;;;;;;;5.75;2.50;;;23.90;23.50;;;;;;4920104;29;20194;-88
2023/07/01 14:34:40;;;;;;;2.60;2.40;;;23.70;23.30;;;;;;4937577;29;20243;-89
2023/07/01 14:37:07;;;;;;;2.83;2.55;;;23.70;23.40;;;;;;4941170;28;20198;-91
2023/07/01 14:39:44;;;;;;;2.53;2.33;;;23.90;23.50;;;;;;4935761;29;20791;-90
2023/07/01 14:42:13;;;;;;;5.43;2.70;;;24.00;22.70;;;;;;4931826;29;20559;-92
2023/07/01 14:44:40;;;;;;;6.60;2.45;;;23.90;22.30;;;;;;4920370;29;20230;-91
2023/07/01 14:47:07;;;;;;;2.72;2.40;;;23.90;22.80;;;;;;4921953;29;20698;-90
2023/07/01 14:49:35;;;;;;;3.30;2.33;;;23.70;24.20;;;;;;4935840;29;20212;-91
2023/07/01 14:52:02;;;;;;;3.60;2.40;;;23.60;24.00;;;;;;4940964;29;20205;-90
2023/07/01 14:54:29;;;;;;;3.58;2.42;;;23.60;23.20;;;;;;4931580;29;20213;-89
2023/07/01 14:56:57;;;;;;;2.80;2.50;;;23.80;24.90;;;;;;4918651;29;20202;-91
2023/07/01 14:59:24;;;;;;;2.42;2.22;;;23.80;23.40;;;;;;4926259;29;20230;-91
2023/07/01 15:01:53;;;;;;;2.55;2.35;;;24.00;24.30;;;;;;4944659;29;20209;-90
2023/07/01 15:04:20;;;;;;;5.60;2.40;;;23.90;23.50;;;;;;4923127;29;20582;-91
2023/07/01 15:07:27;;;;;;;2.88;2.20;;;23.80;23.90;;;;;;4926547;29;20209;-90
2023/07/01 15:14:17;;;;;;;4.20;2.30;;;23.30;27.30;;;;;;4952658;29;20728;-92
2023/07/01 15:16:45;;;;;;;5.93;2.60;;;23.30;25.90;;;;;;4928456;29;20213;-93
2023/07/01 15:19:12;;;;;;;3.75;2.50;;;23.50;26.10;;;;;;4935175;29;20225;-91
2023/07/01 15:21:40;;;;;;;4.80;2.67;;;23.50;23.20;;;;;;4924076;29;20250;-90
2023/07/01 15:27:07;;;;;;;2.85;2.35;;;23.70;23.30;;;;;;4879890;29;20205;-90
2023/07/01 15:29:35;;;;;;;3.38;2.60;;;23.70;24.50;;;;;;4925417;29;20591;-88
2023/07/01 15:34:45;;;;;;;3.45;2.67;;;23.80;25.20;;;;;;4903121;29;20202;-90
2023/07/01 15:37:13;;;;;;;5.18;2.60;;;23.80;23.30;;;;;;4904998;29;21384;-91
2023/07/01 15:42:21;;;;;;;2.63;2.42;;;23.40;23.40;;;;;;4904609;29;20206;-90
2023/07/01 15:44:48;;;;;;;3.10;2.80;;;23.20;26.70;;;;;;4897454;29;20226;-90
2023/07/01 15:50:00;;;;;;;5.43;2.70;;;23.10;25.70;;;;;;4907069;29;20198;-90
2023/07/01 15:58:10;;;;;;;3.38;2.90;;;23.20;26.40;;;;;;4918880;29;20282;-91
2023/07/01 16:00:37;;;;;;;8.52;3.83;;;23.40;24.70;;;;;;4911652;29;20207;-91
2023/07/01 16:05:49;;;;;;;8.85;6.65;;;23.30;23.80;;;;;;4907387;29;20278;-92
2023/07/01 16:16:35;;;;;;;4.97;4.50;;;23.50;21.70;;;;;;4874283;29;20263;-91
2023/07/01 16:44:57;;;;;;;6.82;6.13;;;22.90;20.60;;;;;;5678808;23;20674;-90
2023/07/01 16:47:24;;;;;;;8.30;6.78;;;22.80;20.60;;;;;;4945858;29;20201;-90
2023/07/01 16:49:52;;;;;;;7.68;6.60;;;22.60;19.80;;;;;;4954186;29;20205;-89
2023/07/01 16:55:36;;;;;;;8.82;6.40;;;22.70;19.20;;;;;;4946003;29;20204;-89
2023/07/01 16:58:04;;;;;;;10.35;6.95;;;22.80;19.00;;;;;;4929535;29;20197;-89
2023/07/01 17:32:30;;;;;;;6.55;5.68;;;21.90;21.20;;;;;;5062626;28;20211;-90
2023/07/01 17:35:13;;;;;;;6.80;5.47;;;21.90;19.80;;;;;;5066982;28;20205;-92
2023/07/01 17:37:40;;;;;;;8.30;6.25;;;21.90;20.10;;;;;;5076002;28;20196;-87
2023/07/01 17:40:08;;;;;;;8.95;7.00;;;21.90;21.50;;;;;;5061244;28;20209;-87
2023/07/01 17:42:37;;;;;;;6.10;5.50;;;21.90;19.80;;;;;;5086179;28;20232;-87
2023/07/01 17:45:05;;;;;;;7.80;5.30;;;21.90;21.90;;;;;;5086174;28;20205;-89
2023/07/01 17:47:34;;;;;;;6.60;5.32;;;21.90;21.80;;;;;;5086645;28;20203;-86
2023/07/01 17:50:01;;;;;;;8.43;5.40;;;21.80;21.80;;;;;;5071831;28;20192;-88
2023/07/01 17:52:28;;;;;;;6.93;4.80;;;21.80;23.50;;;;;;5083179;28;20201;-88
2023/07/01 17:54:55;;;;;;;11.20;8.98;;;21.90;22.90;;;;;;5088324;28;20193;-87
2023/07/01 17:57:22;;;;;;;7.70;6.40;;;21.80;22.90;;;;;;5087001;28;20563;-88
2023/07/01 18:02:32;;;;;;;10.82;6.70;;;21.90;24.20;;;;;;5083670;28;20219;-88
2023/07/01 18:04:59;;;;;;;6.05;4.63;;;21.80;23.50;;;;;;5052431;28;20202;-87
2023/07/01 18:07:26;;;;;;;9.18;6.00;;;21.70;23.80;;;;;;5048684;28;20200;-88
2023/07/01 18:09:52;;;;;;;7.88;6.50;;;21.70;23.50;;;;;;5069347;28;20193;-89
2023/07/01 18:12:19;;;;;;;11.25;7.80;;;21.70;24.70;;;;;;5067714;28;20205;-89
2023/07/01 18:14:46;;;;;;;5.00;4.50;;;21.60;24.20;;;;;;5072466;28;20653;-89
2023/07/01 18:17:14;;;;;;;5.25;4.75;;;21.60;23.80;;;;;;5072627;28;20195;-87
2023/07/01 18:19:41;;;;;;;5.03;4.43;;;21.60;24.50;;;;;;5087884;28;20718;-88
2023/07/01 18:22:09;;;;;;;6.80;5.65;;;21.60;24.30;;;;;;5085137;28;20212;-88
2023/07/01 18:24:37;;;;;;;8.90;6.72;;;21.50;25.50;;;;;;5073418;28;20209;-89
2023/07/01 18:27:06;;;;;;;7.68;6.88;;;21.50;26.40;;;;;;5092815;28;20567;-88
2023/07/01 18:29:33;;;;;;;5.13;4.55;;;21.50;25.90;;;;;;5068676;28;20193;-87
2023/07/01 18:31:59;;;;;;;9.38;5.75;;;21.40;26.90;;;;;;5082192;28;20200;-89
2023/07/01 18:34:28;;;;;;;5.75;4.53;;;21.40;26.40;;;;;;5087587;28;20620;-88
2023/07/01 18:36:55;;;;;;;6.88;3.95;;;21.40;26.20;;;;;;5090369;28;20201;-90
2023/07/01 18:39:23;;;;;;;7.13;3.85;;;21.50;25.20;;;;;;5083608;28;20197;-87
2023/07/01 18:41:50;;;;;;;5.20;4.70;;;21.50;26.40;;;;;;5088612;28;20213;-87
2023/07/01 18:44:17;;;;;;;4.70;4.20;;;21.40;26.60;;;;;;5072798;28;20779;-86
2023/07/01 18:46:44;;;;;;;5.07;4.03;;;21.40;27.90;;;;;;5090635;28;20193;-88
2023/07/01 18:49:11;;;;;;;5.07;4.00;;;21.30;27.30;;;;;;5069247;28;20864;-88
2023/07/01 18:51:39;;;;;;;4.95;4.03;;;21.40;27.00;;;;;;5087784;28;20205;-88
2023/07/01 18:54:06;;;;;;;5.45;4.00;;;21.30;28.00;;;;;;5085512;28;20591;-89
2023/07/01 18:56:34;;;;;;;5.80;3.70;;;21.40;28.90;;;;;;5060654;28;20528;-89
2023/07/01 18:59:01;;;;;;;5.63;3.83;;;21.30;28.60;;;;;;5087422;28;20300;-87
2023/07/01 19:01:29;;;;;;;4.47;4.03;;;21.30;29.60;;;;;;5092750;28;20687;-89
2023/07/01 19:03:56;;;;;;;5.30;4.03;;;21.30;29.00;;;;;;5090312;28;20227;-89
2023/07/01 19:06:23;;;;;;;6.07;4.03;;;21.30;28.80;;;;;;5091255;28;20213;-88
2023/07/01 19:08:52;;;;;;;5.03;3.30;;;21.30;28.90;;;;;;5089806;28;20199;-90
2023/07/01 19:11:18;;;;;;;5.68;4.93;;;21.30;28.10;;;;;;5069834;28;20215;-88
2023/07/01 19:13:45;;;;;;;4.07;3.50;;;21.20;29.10;;;;;;5063140;28;20201;-89
2023/07/01 19:16:17;;;;;;;5.82;5.22;;;21.20;28.60;;;;;;5092683;28;20207;-85
2023/07/01 19:18:44;;;;;;;8.90;7.00;;;21.20;30.40;;;;;;5089262;28;20217;-88
2023/07/01 19:21:15;;;;;;;3.42;3.13;;;21.10;29.30;;;;;;5086279;28;20204;-87
2023/07/01 19:23:44;;;;;;;7.10;6.40;;;21.10;29.20;;;;;;5071070;28;20330;-89
2023/07/01 19:26:13;;;;;;;5.78;4.38;;;21.00;31.00;;;;;;5087618;28;20208;-88
2023/07/01 19:28:50;;;;;;;11.85;9.23;;;21.00;31.50;;;;;;5081981;28;20202;-88
2023/07/01 19:31:17;;;;;;;63.10;55.25;;;20.90;32.40;;;;;;5072004;28;20891;-90
2023/07/01 19:33:44;;;;;;;33.55;29.88;;;21.00;31.60;;;;;;5055388;28;20203;-90
2023/07/01 19:36:11;;;;;;;4.85;3.88;;;20.90;32.80;;;;;;5088388;28;20546;-91
2023/07/01 19:38:38;;;;;;;16.67;14.98;;;20.80;32.70;;;;;;5086305;28;20933;-91
2023/07/01 19:41:05;;;;;;;52.60;47.03;;;20.80;32.70;;;;;;5087036;28;20664;-91
2023/07/01 19:43:35;;;;;;;62.53;56.05;;;20.90;32.80;;;;;;5071556;28;20248;-90
2023/07/01 19:46:05;;;;;;;39.03;34.70;;;21.00;32.90;;;;;;5070741;28;20196;-90
2023/07/01 19:48:36;;;;;;;16.60;14.25;;;21.00;32.90;;;;;;5071621;28;20200;-90
2023/07/01 19:51:03;;;;;;;13.20;10.75;;;21.00;32.90;;;;;;5063346;28;20262;-91
2023/07/01 19:53:30;;;;;;;10.02;9.00;;;21.00;32.90;;;;;;5092714;28;20204;-91
2023/07/01 19:55:57;;;;;;;12.50;11.38;;;20.90;32.80;;;;;;5091611;28;20196;-92
2023/07/01 19:58:24;;;;;;;8.77;7.88;;;20.90;34.40;;;;;;5073099;28;20200;-90
2023/07/01 20:00:55;;;;;;;5.50;4.85;;;20.80;34.20;;;;;;5084543;28;20567;-88
2023/07/01 20:03:23;;;;;;;9.43;7.72;;;20.80;34.30;;;;;;5074479;28;20220;-90
2023/07/01 20:05:50;;;;;;;8.77;5.43;;;20.80;36.80;;;;;;5071141;28;20279;-89
2023/07/01 20:08:17;;;;;;;4.00;3.40;;;20.80;35.70;;;;;;5090538;28;20207;-90
2023/07/01 20:10:44;;;;;;;3.83;3.50;;;20.80;37.10;;;;;;5085680;28;20201;-90
2023/07/01 20:13:11;;;;;;;5.30;3.30;;;20.70;37.30;;;;;;5071012;28;20200;-88
2023/07/01 20:15:39;;;;;;;3.80;2.70;;;20.70;35.60;;;;;;5074193;28;20200;-90
2023/07/01 20:18:08;;;;;;;3.97;2.90;;;20.70;36.10;;;;;;5084055;28;20278;-90
2023/07/01 20:23:15;;;;;;;4.15;3.00;;;20.70;36.40;;;;;;5072152;28;20251;-88
2023/07/01 20:25:42;;;;;;;4.32;3.10;;;20.70;37.70;;;;;;5071097;28;20204;-91
2023/07/01 20:28:13;;;;;;;4.55;3.20;;;20.70;38.90;;;;;;5076822;28;22053;-87
2023/07/01 20:30:40;;;;;;;3.78;3.30;;;20.60;40.10;;;;;;5075693;28;20189;-90
2023/07/01 20:36:13;;;;;;;3.40;3.10;;;20.60;39.50;;;;;;5037188;28;20206;-91
2023/07/01 20:38:40;;;;;;;3.83;2.55;;;20.50;40.90;;;;;;5006919;28;20206;-89
2023/07/01 20:41:07;;;;;;;2.88;2.50;;;20.50;42.00;;;;;;5032389;28;20189;-88
2023/07/01 20:43:34;;;;;;;6.18;2.90;;;20.40;42.40;;;;;;5072065;28;20239;-90
2023/07/01 20:46:03;;;;;;;3.45;2.60;;;20.40;45.80;;;;;;5059356;28;20600;-91
2023/07/01 20:48:31;;;;;;;5.70;2.50;;;20.40;46.10;;;;;;5057086;28;20203;-88
2023/07/01 20:50:59;;;;;;;4.78;2.67;;;20.40;44.50;;;;;;5083785;28;20193;-89
2023/07/01 20:53:25;;;;;;;5.32;2.42;;;20.40;45.60;;;;;;5093349;28;20201;-88
2023/07/01 20:55:53;;;;;;;6.40;2.25;;;20.30;46.90;;;;;;5056305;28;20646;-91
2023/07/01 20:58:20;;;;;;;3.10;2.30;;;20.30;48.80;;;;;;5067834;28;20258;-90
2023/07/01 21:00:47;;;;;;;4.30;3.28;;;20.20;51.50;;;;;;5089966;28;20188;-89
2023/07/01 21:03:14;;;;;;;7.97;3.55;;;20.10;50.00;;;;;;5091003;28;20232;-89
2023/07/01 21:05:42;;;;;;;3.00;2.53;;;20.00;52.90;;;;;;5086766;28;20228;-90
2023/07/01 21:08:09;;;;;;;3.50;2.35;;;20.00;54.40;;;;;;5092175;28;20196;-88
2023/07/01 21:10:36;;;;;;;2.60;2.22;;;20.00;52.90;;;;;;5074553;28;20196;-90
2023/07/01 21:13:04;;;;;;;5.18;2.40;;;19.90;54.20;;;;;;5057444;28;20196;-88
2023/07/01 21:15:31;;;;;;;3.90;2.25;;;19.90;51.40;;;;;;5100140;28;20207;-89
2023/07/01 21:23:10;;;;;;;2.20;2.00;;;20.00;54.00;;;;;;5099432;22;20257;-89
2023/07/01 21:25:37;;;;;;;2.85;2.10;;;20.00;50.60;;;;;;5052828;28;20289;-88
2023/07/01 21:28:42;;;;;;;6.30;2.20;;;20.10;49.80;;;;;;5036291;28;20209;-89
2023/07/01 21:34:46;;;;;;;2.80;2.00;;;19.90;52.40;;;;;;5054201;28;20162;-89
2023/07/01 21:41:18;;;;;;;2.63;2.20;;;19.80;52.20;;;;;;5054362;28;20220;-89
2023/07/01 21:49:54;;;;;;;3.97;2.40;;;19.80;55.70;;;;;;5048942;28;20207;-89
2023/07/01 21:55:05;;;;;;;5.78;2.85;;;19.40;76.40;;;;;;5049410;28;20285;-89
2023/07/01 21:57:33;;;;;;;4.63;2.70;;;19.20;82.50;;;;;;5030451;28;20198;-88
2023/07/01 22:00:03;;;;;;;3.85;2.97;;;19.00;88.10;;;;;;5050685;28;20198;-88
2023/07/01 22:02:31;;;;;;;4.57;2.90;;;18.80;90.60;;;;;;5006142;28;20228;-88
2023/07/01 22:04:58;;;;;;;6.03;2.75;;;18.60;91.80;;;;;;5053707;28;20203;-89
2023/07/01 22:07:25;;;;;;;6.10;2.90;;;18.50;92.30;;;;;;5046637;28;20198;-90
2023/07/01 22:09:51;;;;;;;4.28;2.97;;;18.40;92.50;;;;;;5028685;28;20655;-90
2023/07/01 22:12:18;;;;;;;3.17;2.90;;;18.30;93.80;;;;;;5043562;28;20193;-89
2023/07/01 22:14:45;;;;;;;4.20;2.67;;;18.20;95.20;;;;;;5049263;28;20202;-90
2023/07/01 22:17:12;;;;;;;2.78;2.58;;;18.00;96.70;;;;;;5055164;28;20209;-89
2023/07/01 22:19:41;;;;;;;4.25;2.78;;;17.80;97.60;;;;;;5055564;28;20205;-89
2023/07/01 22:22:07;;;;;;;3.30;2.75;;;17.70;97.80;;;;;;5051161;28;20650;-89
2023/07/01 22:24:34;;;;;;;4.03;2.80;;;17.60;97.70;;;;;;5067087;28;20229;-89
2023/07/01 22:27:01;;;;;;;3.72;2.90;;;17.50;98.80;;;;;;5042009;28;20198;-90
2023/07/01 22:32:52;;;;;;;3.13;2.83;;;17.30;99.90;;;;;;5037071;28;20198;-89
2023/07/01 22:35:46;;;;;;;4.65;3.38;;;17.30;99.90;;;;;;5040456;28;20205;-89
2023/07/01 22:38:13;;;;;;;4.05;3.00;;;17.30;99.90;;;;;;5016443;28;20256;-88
2023/07/01 22:40:40;;;;;;;3.78;2.80;;;17.40;99.90;;;;;;5032702;28;20198;-89
2023/07/01 22:43:07;;;;;;;4.85;2.90;;;17.40;99.90;;;;;;5008535;28;20233;-90
2023/07/01 22:45:34;;;;;;;3.83;2.97;;;17.30;99.90;;;;;;5040277;28;20654;-89
2023/07/01 22:48:01;;;;;;;4.13;2.88;;;17.30;99.90;;;;;;5047411;28;20209;-89
2023/07/01 22:50:28;;;;;;;5.25;2.90;;;17.30;99.90;;;;;;5047856;28;20206;-88
2023/07/01 22:55:37;;;;;;;3.13;2.83;;;17.30;99.90;;;;;;5039662;28;20213;-89
2023/07/01 22:58:04;;;;;;;6.03;2.83;;;17.30;99.90;;;;;;5038667;28;20570;-90
2023/07/01 23:00:31;;;;;;;4.63;3.28;;;17.30;99.90;;;;;;5038839;28;20186;-90
2023/07/01 23:02:58;;;;;;;3.38;2.83;;;17.30;99.90;;;;;;5043071;28;20596;-90
2023/07/01 23:05:25;;;;;;;4.55;3.00;;;17.30;99.90;;;;;;5051560;28;20198;-88
2023/07/01 23:07:51;;;;;;;4.82;2.90;;;17.30;99.90;;;;;;5022287;28;20209;-91
2023/07/01 23:10:20;;;;;;;3.70;2.90;;;17.20;99.90;;;;;;5054660;28;20197;-88
2023/07/01 23:16:09;;;;;;;2.97;2.40;;;17.20;99.90;;;;;;5035759;28;20229;-90
2023/07/01 23:18:36;;;;;;;2.85;2.65;;;17.20;99.90;;;;;;5025781;28;20234;-88
2023/07/01 23:21:05;;;;;;;2.92;2.60;;;17.20;99.90;;;;;;5024559;28;20272;-88
2023/07/01 23:23:32;;;;;;;4.18;2.80;;;17.20;99.90;;;;;;5070823;28;20221;-90
2023/07/01 23:26:00;;;;;;;3.33;2.72;;;17.30;99.90;;;;;;5033845;28;20566;-89
2023/07/01 23:28:31;;;;;;;4.22;2.80;;;17.30;99.90;;;;;;5042962;28;20206;-88
2023/07/01 23:30:58;;;;;;;3.05;2.65;;;17.30;99.90;;;;;;5049122;28;20210;-88
2023/07/01 23:33:25;;;;;;;2.97;2.67;;;17.30;99.90;;;;;;5053273;28;20213;-88
2023/07/01 23:35:52;;;;;;;2.70;2.50;;;17.30;99.90;;;;;;5041939;28;20271;-90
2023/07/01 23:38:19;;;;;;;4.35;3.05;;;17.30;99.90;;;;;;5059336;28;20300;-89
2023/07/01 23:40:46;;;;;;;2.67;2.47;;;17.20;99.90;;;;;;5039367;28;20190;-89
2023/07/01 23:43:21;;;;;;;4.05;2.78;;;17.20;99.90;;;;;;5036855;28;20698;-90
2023/07/01 23:46:09;;;;;;;3.20;2.50;;;17.30;99.90;;;;;;5042045;28;20229;-87
2023/07/01 23:48:36;;;;;;;2.55;2.28;;;17.30;99.90;;;;;;5037751;28;20202;-90
2023/07/01 23:51:03;;;;;;;2.90;2.55;;;17.20;99.90;;;;;;5055155;28;20201;-89
2023/07/01 23:53:29;;;;;;;2.88;2.60;;;17.30;99.90;;;;;;5021237;28;20209;-89
2023/07/01 23:55:56;;;;;;;4.20;2.70;;;17.30;99.90;;;;;;5055541;28;20202;-88
2023/07/01 23:58:25;;;;;;;3.13;2.50;;;17.30;99.90;;;;;;5023138;28;20202;-88
